sensor_id;sensor_type;location;lat;lon;timestamp;P1;durP1;ratioP1;P2;durP2;ratioP2
3993;SDS011;2011;48.238;13.948;2022-07-23T00:00:14;17.50;;;9.77;;
3993;SDS011;2011;48.238;13.948;2022-07-23T00:02:42;14.60;;;9.50;;
3993;SDS011;2011;48.238;13.948;2022-07-23T00:05:09;13.40;;;9.37;;
3993;SDS011;2011;48.238;13.948;2022-07-23T00:07:37;13.97;;;9.10;;
3993;SDS011;2011;48.238;13.948;2022-07-23T00:10:05;15.70;;;8.27;;
3993;SDS011;2011;48.238;13.948;2022-07-23T00:12:32;12.90;;;9.07;;
3993;SDS011;2011;48.238;13.948;2022-07-23T00:14:59;11.30;;;8.63;;
3993;SDS011;2011;48.238;13.948;2022-07-23T00:17:28;14.03;;;7.77;;
3993;SDS011;2011;48.238;13.948;2022-07-23T00:19:55;11.67;;;7.20;;
3993;SDS011;2011;48.238;13.948;2022-07-23T00:22:22;9.60;;;6.77;;
3993;SDS011;2011;48.238;13.948;2022-07-23T00:24:49;9.80;;;7.10;;
3993;SDS011;2011;48.238;13.948;2022-07-23T00:27:17;10.83;;;7.07;;
3993;SDS011;2011;48.238;13.948;2022-07-23T00:29:44;10.40;;;6.67;;
3993;SDS011;2011;48.238;13.948;2022-07-23T00:32:11;11.20;;;7.53;;
3993;SDS011;2011;48.238;13.948;2022-07-23T00:34:39;10.40;;;7.30;;
3993;SDS011;2011;48.238;13.948;2022-07-23T00:37:06;10.50;;;7.33;;
3993;SDS011;2011;48.238;13.948;2022-07-23T00:39:33;12.23;;;7.63;;
3993;SDS011;2011;48.238;13.948;2022-07-23T00:42:00;12.27;;;8.93;;
3993;SDS011;2011;48.238;13.948;2022-07-23T00:44:27;13.57;;;7.43;;
3993;SDS011;2011;48.238;13.948;2022-07-23T00:46:56;10.60;;;7.80;;
3993;SDS011;2011;48.238;13.948;2022-07-23T00:49:26;11.43;;;8.37;;
3993;SDS011;2011;48.238;13.948;2022-07-23T00:51:56;10.43;;;7.77;;
3993;SDS011;2011;48.238;13.948;2022-07-23T00:54:27;10.97;;;7.57;;
3993;SDS011;2011;48.238;13.948;2022-07-23T00:56:54;11.63;;;7.37;;
3993;SDS011;2011;48.238;13.948;2022-07-23T00:59:21;21.20;;;10.83;;
3993;SDS011;2011;48.238;13.948;2022-07-23T01:01:48;14.03;;;9.70;;
3993;SDS011;2011;48.238;13.948;2022-07-23T01:04:16;13.03;;;9.87;;
3993;SDS011;2011;48.238;13.948;2022-07-23T01:06:43;12.03;;;8.80;;
3993;SDS011;2011;48.238;13.948;2022-07-23T01:09:12;12.93;;;7.70;;
3993;SDS011;2011;48.238;13.948;2022-07-23T01:11:39;13.10;;;8.10;;
3993;SDS011;2011;48.238;13.948;2022-07-23T01:14:08;13.97;;;7.10;;
3993;SDS011;2011;48.238;13.948;2022-07-23T01:16:36;11.13;;;7.23;;
3993;SDS011;2011;48.238;13.948;2022-07-23T01:19:03;11.10;;;8.27;;
3993;SDS011;2011;48.238;13.948;2022-07-23T01:21:32;9.90;;;7.60;;
3993;SDS011;2011;48.238;13.948;2022-07-23T01:24:03;15.20;;;11.17;;
3993;SDS011;2011;48.238;13.948;2022-07-23T01:26:31;18.00;;;10.73;;
3993;SDS011;2011;48.238;13.948;2022-07-23T01:28:58;17.70;;;11.20;;
3993;SDS011;2011;48.238;13.948;2022-07-23T01:31:26;18.43;;;11.20;;
3993;SDS011;2011;48.238;13.948;2022-07-23T01:33:53;18.20;;;9.77;;
3993;SDS011;2011;48.238;13.948;2022-07-23T01:36:21;13.20;;;9.67;;
3993;SDS011;2011;48.238;13.948;2022-07-23T01:38:48;13.13;;;9.20;;
3993;SDS011;2011;48.238;13.948;2022-07-23T01:41:17;23.90;;;9.63;;
3993;SDS011;2011;48.238;13.948;2022-07-23T01:43:44;14.27;;;9.53;;
3993;SDS011;2011;48.238;13.948;2022-07-23T01:46:11;12.43;;;9.33;;
3993;SDS011;2011;48.238;13.948;2022-07-23T01:48:39;15.37;;;10.20;;
3993;SDS011;2011;48.238;13.948;2022-07-23T01:51:07;20.33;;;9.90;;
3993;SDS011;2011;48.238;13.948;2022-07-23T01:53:34;15.03;;;10.60;;
3993;SDS011;2011;48.238;13.948;2022-07-23T01:56:01;14.27;;;10.63;;
3993;SDS011;2011;48.238;13.948;2022-07-23T01:58:30;14.87;;;10.00;;
3993;SDS011;2011;48.238;13.948;2022-07-23T02:00:57;13.00;;;10.50;;
3993;SDS011;2011;48.238;13.948;2022-07-23T02:03:24;14.13;;;10.77;;
3993;SDS011;2011;48.238;13.948;2022-07-23T02:05:52;13.97;;;9.87;;
3993;SDS011;2011;48.238;13.948;2022-07-23T02:08:19;13.27;;;9.47;;
3993;SDS011;2011;48.238;13.948;2022-07-23T02:10:46;12.67;;;9.20;;
3993;SDS011;2011;48.238;13.948;2022-07-23T02:13:13;15.70;;;8.03;;
3993;SDS011;2011;48.238;13.948;2022-07-23T02:15:42;12.70;;;8.80;;
3993;SDS011;2011;48.238;13.948;2022-07-23T02:18:09;18.03;;;8.90;;
3993;SDS011;2011;48.238;13.948;2022-07-23T02:20:36;15.47;;;8.50;;
3993;SDS011;2011;48.238;13.948;2022-07-23T02:23:04;15.10;;;8.50;;
3993;SDS011;2011;48.238;13.948;2022-07-23T02:25:32;13.90;;;10.03;;
3993;SDS011;2011;48.238;13.948;2022-07-23T02:28:00;17.70;;;11.43;;
3993;SDS011;2011;48.238;13.948;2022-07-23T02:30:27;16.10;;;10.20;;
3993;SDS011;2011;48.238;13.948;2022-07-23T02:32:55;15.33;;;10.43;;
3993;SDS011;2011;48.238;13.948;2022-07-23T02:35:22;14.53;;;9.33;;
3993;SDS011;2011;48.238;13.948;2022-07-23T02:37:49;15.80;;;10.80;;
3993;SDS011;2011;48.238;13.948;2022-07-23T02:40:17;18.10;;;11.20;;
3993;SDS011;2011;48.238;13.948;2022-07-23T02:42:44;17.50;;;11.63;;
3993;SDS011;2011;48.238;13.948;2022-07-23T02:45:11;20.33;;;10.80;;
3993;SDS011;2011;48.238;13.948;2022-07-23T02:47:38;16.50;;;10.10;;
3993;SDS011;2011;48.238;13.948;2022-07-23T02:50:07;16.80;;;10.73;;
3993;SDS011;2011;48.238;13.948;2022-07-23T02:52:35;16.00;;;11.17;;
3993;SDS011;2011;48.238;13.948;2022-07-23T02:55:02;20.03;;;11.27;;
3993;SDS011;2011;48.238;13.948;2022-07-23T02:57:29;17.17;;;11.43;;
3993;SDS011;2011;48.238;13.948;2022-07-23T02:59:56;12.87;;;10.57;;
3993;SDS011;2011;48.238;13.948;2022-07-23T03:02:23;20.10;;;11.90;;
3993;SDS011;2011;48.238;13.948;2022-07-23T03:04:51;14.07;;;10.80;;
3993;SDS011;2011;48.238;13.948;2022-07-23T03:07:20;15.80;;;10.70;;
3993;SDS011;2011;48.238;13.948;2022-07-23T03:09:47;19.77;;;10.73;;
3993;SDS011;2011;48.238;13.948;2022-07-23T03:12:14;17.90;;;11.40;;
3993;SDS011;2011;48.238;13.948;2022-07-23T03:14:41;13.20;;;10.50;;
3993;SDS011;2011;48.238;13.948;2022-07-23T03:17:08;13.83;;;10.13;;
3993;SDS011;2011;48.238;13.948;2022-07-23T03:19:36;13.00;;;9.80;;
3993;SDS011;2011;48.238;13.948;2022-07-23T03:22:03;17.60;;;11.70;;
3993;SDS011;2011;48.238;13.948;2022-07-23T03:24:32;18.37;;;11.37;;
3993;SDS011;2011;48.238;13.948;2022-07-23T03:27:16;15.13;;;10.83;;
3993;SDS011;2011;48.238;13.948;2022-07-23T03:29:43;15.80;;;10.80;;
3993;SDS011;2011;48.238;13.948;2022-07-23T03:32:10;18.27;;;11.90;;
3993;SDS011;2011;48.238;13.948;2022-07-23T03:34:38;14.23;;;11.37;;
3993;SDS011;2011;48.238;13.948;2022-07-23T03:37:05;16.73;;;11.23;;
3993;SDS011;2011;48.238;13.948;2022-07-23T03:39:34;13.57;;;10.13;;
3993;SDS011;2011;48.238;13.948;2022-07-23T03:42:01;15.43;;;10.63;;
3993;SDS011;2011;48.238;13.948;2022-07-23T03:44:28;13.10;;;10.17;;
3993;SDS011;2011;48.238;13.948;2022-07-23T03:46:55;15.27;;;9.00;;
3993;SDS011;2011;48.238;13.948;2022-07-23T03:49:22;19.60;;;8.80;;
3993;SDS011;2011;48.238;13.948;2022-07-23T03:51:49;12.67;;;8.03;;
3993;SDS011;2011;48.238;13.948;2022-07-23T03:54:16;21.23;;;8.07;;
3993;SDS011;2011;48.238;13.948;2022-07-23T03:56:45;10.00;;;7.40;;
3993;SDS011;2011;48.238;13.948;2022-07-23T03:59:12;10.63;;;6.40;;
3993;SDS011;2011;48.238;13.948;2022-07-23T04:01:39;8.33;;;6.50;;
3993;SDS011;2011;48.238;13.948;2022-07-23T04:04:06;16.00;;;9.40;;
3993;SDS011;2011;48.238;13.948;2022-07-23T04:06:33;17.00;;;10.07;;
3993;SDS011;2011;48.238;13.948;2022-07-23T04:09:00;13.60;;;9.70;;
3993;SDS011;2011;48.238;13.948;2022-07-23T04:11:28;13.40;;;10.00;;
3993;SDS011;2011;48.238;13.948;2022-07-23T04:13:56;11.93;;;8.97;;
3993;SDS011;2011;48.238;13.948;2022-07-23T04:16:23;14.73;;;9.23;;
3993;SDS011;2011;48.238;13.948;2022-07-23T04:18:50;12.70;;;9.00;;
3993;SDS011;2011;48.238;13.948;2022-07-23T04:21:18;12.33;;;9.00;;
3993;SDS011;2011;48.238;13.948;2022-07-23T04:23:45;14.30;;;8.73;;
3993;SDS011;2011;48.238;13.948;2022-07-23T04:26:12;12.50;;;9.60;;
3993;SDS011;2011;48.238;13.948;2022-07-23T04:28:39;15.20;;;9.60;;
3993;SDS011;2011;48.238;13.948;2022-07-23T04:31:07;15.87;;;10.20;;
3993;SDS011;2011;48.238;13.948;2022-07-23T04:33:34;26.43;;;11.23;;
3993;SDS011;2011;48.238;13.948;2022-07-23T04:36:02;20.93;;;10.53;;
3993;SDS011;2011;48.238;13.948;2022-07-23T04:38:29;12.70;;;9.90;;
3993;SDS011;2011;48.238;13.948;2022-07-23T04:40:57;16.70;;;10.50;;
3993;SDS011;2011;48.238;13.948;2022-07-23T04:43:24;12.00;;;9.63;;
3993;SDS011;2011;48.238;13.948;2022-07-23T04:45:52;11.43;;;8.90;;
3993;SDS011;2011;48.238;13.948;2022-07-23T04:48:20;14.47;;;8.53;;
3993;SDS011;2011;48.238;13.948;2022-07-23T04:50:47;10.60;;;7.37;;
3993;SDS011;2011;48.238;13.948;2022-07-23T04:53:14;11.67;;;8.10;;
3993;SDS011;2011;48.238;13.948;2022-07-23T04:55:43;10.90;;;7.03;;
3993;SDS011;2011;48.238;13.948;2022-07-23T04:58:10;13.70;;;7.33;;
3993;SDS011;2011;48.238;13.948;2022-07-23T05:00:37;11.07;;;6.90;;
3993;SDS011;2011;48.238;13.948;2022-07-23T05:03:04;12.33;;;7.17;;
3993;SDS011;2011;48.238;13.948;2022-07-23T05:05:33;19.13;;;6.90;;
3993;SDS011;2011;48.238;13.948;2022-07-23T05:08:01;16.57;;;7.70;;
3993;SDS011;2011;48.238;13.948;2022-07-23T05:10:28;14.50;;;8.07;;
3993;SDS011;2011;48.238;13.948;2022-07-23T05:12:55;9.90;;;7.30;;
3993;SDS011;2011;48.238;13.948;2022-07-23T05:15:23;11.83;;;7.40;;
3993;SDS011;2011;48.238;13.948;2022-07-23T05:17:50;10.30;;;7.13;;
3993;SDS011;2011;48.238;13.948;2022-07-23T05:20:17;8.60;;;5.90;;
3993;SDS011;2011;48.238;13.948;2022-07-23T05:22:46;8.50;;;6.20;;
3993;SDS011;2011;48.238;13.948;2022-07-23T05:25:13;9.50;;;6.60;;
3993;SDS011;2011;48.238;13.948;2022-07-23T05:27:40;11.83;;;7.07;;
3993;SDS011;2011;48.238;13.948;2022-07-23T05:30:07;11.40;;;6.40;;
3993;SDS011;2011;48.238;13.948;2022-07-23T05:32:35;9.43;;;6.70;;
3993;SDS011;2011;48.238;13.948;2022-07-23T05:35:02;9.27;;;6.30;;
3993;SDS011;2011;48.238;13.948;2022-07-23T05:37:30;10.10;;;6.57;;
3993;SDS011;2011;48.238;13.948;2022-07-23T05:40:00;8.77;;;6.90;;
3993;SDS011;2011;48.238;13.948;2022-07-23T05:42:28;15.93;;;6.60;;
3993;SDS011;2011;48.238;13.948;2022-07-23T05:44:55;11.57;;;6.43;;
3993;SDS011;2011;48.238;13.948;2022-07-23T05:47:22;12.40;;;6.20;;
3993;SDS011;2011;48.238;13.948;2022-07-23T05:49:50;12.93;;;7.27;;
3993;SDS011;2011;48.238;13.948;2022-07-23T05:52:17;9.60;;;6.77;;
3993;SDS011;2011;48.238;13.948;2022-07-23T05:54:44;10.07;;;6.37;;
3993;SDS011;2011;48.238;13.948;2022-07-23T05:57:12;10.13;;;6.10;;
3993;SDS011;2011;48.238;13.948;2022-07-23T05:59:39;17.73;;;6.60;;
3993;SDS011;2011;48.238;13.948;2022-07-23T06:02:06;17.60;;;6.57;;
3993;SDS011;2011;48.238;13.948;2022-07-23T06:04:33;9.97;;;6.20;;
3993;SDS011;2011;48.238;13.948;2022-07-23T06:07:00;14.93;;;6.00;;
3993;SDS011;2011;48.238;13.948;2022-07-23T06:09:27;10.80;;;5.90;;
3993;SDS011;2011;48.238;13.948;2022-07-23T06:11:54;11.53;;;5.50;;
3993;SDS011;2011;48.238;13.948;2022-07-23T06:14:23;11.70;;;5.93;;
3993;SDS011;2011;48.238;13.948;2022-07-23T06:16:50;11.57;;;6.27;;
3993;SDS011;2011;48.238;13.948;2022-07-23T06:19:17;15.20;;;5.43;;
3993;SDS011;2011;48.238;13.948;2022-07-23T06:21:44;10.30;;;6.00;;
3993;SDS011;2011;48.238;13.948;2022-07-23T06:24:11;16.50;;;5.47;;
3993;SDS011;2011;48.238;13.948;2022-07-23T06:26:38;9.90;;;5.87;;
3993;SDS011;2011;48.238;13.948;2022-07-23T06:29:05;10.93;;;5.63;;
3993;SDS011;2011;48.238;13.948;2022-07-23T06:31:34;10.33;;;4.53;;
3993;SDS011;2011;48.238;13.948;2022-07-23T06:34:01;9.20;;;5.37;;
3993;SDS011;2011;48.238;13.948;2022-07-23T06:36:28;13.93;;;5.23;;
3993;SDS011;2011;48.238;13.948;2022-07-23T06:38:55;10.50;;;5.20;;
3993;SDS011;2011;48.238;13.948;2022-07-23T06:41:22;9.73;;;5.30;;
3993;SDS011;2011;48.238;13.948;2022-07-23T06:43:49;12.60;;;6.37;;
3993;SDS011;2011;48.238;13.948;2022-07-23T06:46:16;8.60;;;5.73;;
3993;SDS011;2011;48.238;13.948;2022-07-23T06:48:45;8.17;;;4.97;;
3993;SDS011;2011;48.238;13.948;2022-07-23T06:51:12;10.70;;;5.13;;
3993;SDS011;2011;48.238;13.948;2022-07-23T06:53:39;9.43;;;5.13;;
3993;SDS011;2011;48.238;13.948;2022-07-23T06:56:07;7.23;;;5.23;;
3993;SDS011;2011;48.238;13.948;2022-07-23T06:58:34;9.77;;;4.97;;
3993;SDS011;2011;48.238;13.948;2022-07-23T07:01:01;7.77;;;5.03;;
3993;SDS011;2011;48.238;13.948;2022-07-23T07:03:28;8.20;;;5.20;;
3993;SDS011;2011;48.238;13.948;2022-07-23T07:05:57;11.00;;;5.47;;
3993;SDS011;2011;48.238;13.948;2022-07-23T07:08:23;10.60;;;5.60;;
3993;SDS011;2011;48.238;13.948;2022-07-23T07:10:51;8.97;;;5.20;;
3993;SDS011;2011;48.238;13.948;2022-07-23T07:13:18;10.00;;;5.40;;
3993;SDS011;2011;48.238;13.948;2022-07-23T07:15:45;12.57;;;5.47;;
3993;SDS011;2011;48.238;13.948;2022-07-23T07:18:12;10.53;;;5.10;;
3993;SDS011;2011;48.238;13.948;2022-07-23T07:20:39;9.23;;;5.20;;
3993;SDS011;2011;48.238;13.948;2022-07-23T07:23:07;8.40;;;5.33;;
3993;SDS011;2011;48.238;13.948;2022-07-23T07:25:34;9.83;;;5.03;;
3993;SDS011;2011;48.238;13.948;2022-07-23T07:28:01;11.97;;;4.87;;
3993;SDS011;2011;48.238;13.948;2022-07-23T07:30:29;8.43;;;4.80;;
3993;SDS011;2011;48.238;13.948;2022-07-23T07:32:56;12.17;;;5.00;;
3993;SDS011;2011;48.238;13.948;2022-07-23T07:35:23;20.33;;;4.80;;
3993;SDS011;2011;48.238;13.948;2022-07-23T07:37:50;13.13;;;5.57;;
3993;SDS011;2011;48.238;13.948;2022-07-23T07:40:19;21.47;;;4.90;;
3993;SDS011;2011;48.238;13.948;2022-07-23T07:42:46;6.77;;;4.43;;
3993;SDS011;2011;48.238;13.948;2022-07-23T07:45:13;8.87;;;5.43;;
3993;SDS011;2011;48.238;13.948;2022-07-23T07:47:41;14.73;;;5.60;;
3993;SDS011;2011;48.238;13.948;2022-07-23T07:50:09;14.27;;;5.07;;
3993;SDS011;2011;48.238;13.948;2022-07-23T07:52:36;9.93;;;4.90;;
3993;SDS011;2011;48.238;13.948;2022-07-23T07:55:03;11.60;;;4.30;;
3993;SDS011;2011;48.238;13.948;2022-07-23T07:57:33;8.57;;;4.50;;
3993;SDS011;2011;48.238;13.948;2022-07-23T08:00:00;9.07;;;4.53;;
3993;SDS011;2011;48.238;13.948;2022-07-23T08:02:27;12.13;;;4.67;;
3993;SDS011;2011;48.238;13.948;2022-07-23T08:04:54;11.23;;;4.50;;
3993;SDS011;2011;48.238;13.948;2022-07-23T08:07:22;8.30;;;4.83;;
3993;SDS011;2011;48.238;13.948;2022-07-23T08:09:49;7.50;;;4.00;;
3993;SDS011;2011;48.238;13.948;2022-07-23T08:12:16;8.37;;;4.57;;
3993;SDS011;2011;48.238;13.948;2022-07-23T08:14:44;10.87;;;4.50;;
3993;SDS011;2011;48.238;13.948;2022-07-23T08:17:11;11.33;;;4.63;;
3993;SDS011;2011;48.238;13.948;2022-07-23T08:19:38;7.00;;;4.17;;
3993;SDS011;2011;48.238;13.948;2022-07-23T08:22:06;9.13;;;4.73;;
3993;SDS011;2011;48.238;13.948;2022-07-23T08:24:32;6.53;;;4.33;;
3993;SDS011;2011;48.238;13.948;2022-07-23T08:26:59;7.77;;;5.00;;
3993;SDS011;2011;48.238;13.948;2022-07-23T08:29:26;7.50;;;4.47;;
3993;SDS011;2011;48.238;13.948;2022-07-23T08:31:55;6.73;;;4.37;;
3993;SDS011;2011;48.238;13.948;2022-07-23T08:34:22;9.47;;;4.53;;
3993;SDS011;2011;48.238;13.948;2022-07-23T08:36:49;12.50;;;5.10;;
3993;SDS011;2011;48.238;13.948;2022-07-23T08:39:16;6.97;;;4.67;;
3993;SDS011;2011;48.238;13.948;2022-07-23T08:41:43;9.17;;;4.80;;
3993;SDS011;2011;48.238;13.948;2022-07-23T08:44:10;8.83;;;4.77;;
3993;SDS011;2011;48.238;13.948;2022-07-23T08:46:38;12.53;;;4.87;;
3993;SDS011;2011;48.238;13.948;2022-07-23T08:49:08;8.20;;;5.40;;
3993;SDS011;2011;48.238;13.948;2022-07-23T08:51:35;8.63;;;5.53;;
3993;SDS011;2011;48.238;13.948;2022-07-23T08:54:02;15.87;;;5.77;;
3993;SDS011;2011;48.238;13.948;2022-07-23T08:56:29;11.70;;;5.30;;
3993;SDS011;2011;48.238;13.948;2022-07-23T08:58:56;8.77;;;5.87;;
3993;SDS011;2011;48.238;13.948;2022-07-23T09:01:24;11.33;;;5.63;;
3993;SDS011;2011;48.238;13.948;2022-07-23T09:03:51;15.83;;;6.10;;
3993;SDS011;2011;48.238;13.948;2022-07-23T09:06:19;9.13;;;5.40;;
3993;SDS011;2011;48.238;13.948;2022-07-23T09:08:46;10.57;;;5.20;;
3993;SDS011;2011;48.238;13.948;2022-07-23T09:11:15;9.00;;;6.20;;
3993;SDS011;2011;48.238;13.948;2022-07-23T09:13:46;12.67;;;6.20;;
3993;SDS011;2011;48.238;13.948;2022-07-23T09:16:14;12.50;;;5.83;;
3993;SDS011;2011;48.238;13.948;2022-07-23T09:18:45;11.10;;;5.40;;
3993;SDS011;2011;48.238;13.948;2022-07-23T09:21:18;11.47;;;5.23;;
3993;SDS011;2011;48.238;13.948;2022-07-23T09:23:54;10.83;;;5.37;;
3993;SDS011;2011;48.238;13.948;2022-07-23T09:26:27;11.00;;;5.63;;
3993;SDS011;2011;48.238;13.948;2022-07-23T09:29:03;10.40;;;5.20;;
3993;SDS011;2011;48.238;13.948;2022-07-23T09:31:33;11.47;;;5.70;;
3993;SDS011;2011;48.238;13.948;2022-07-23T09:34:08;7.20;;;4.87;;
3993;SDS011;2011;48.238;13.948;2022-07-23T09:36:39;14.50;;;5.87;;
3993;SDS011;2011;48.238;13.948;2022-07-23T09:39:07;6.80;;;4.70;;
3993;SDS011;2011;48.238;13.948;2022-07-23T09:41:38;8.27;;;4.90;;
3993;SDS011;2011;48.238;13.948;2022-07-23T09:44:11;12.03;;;4.17;;
3993;SDS011;2011;48.238;13.948;2022-07-23T09:46:41;9.00;;;4.67;;
3993;SDS011;2011;48.238;13.948;2022-07-23T09:49:10;9.00;;;4.83;;
3993;SDS011;2011;48.238;13.948;2022-07-23T09:51:44;8.07;;;4.73;;
3993;SDS011;2011;48.238;13.948;2022-07-23T09:54:23;8.63;;;4.70;;
3993;SDS011;2011;48.238;13.948;2022-07-23T09:56:53;9.23;;;4.97;;
3993;SDS011;2011;48.238;13.948;2022-07-23T09:59:22;9.50;;;4.80;;
3993;SDS011;2011;48.238;13.948;2022-07-23T10:01:52;8.23;;;5.00;;
3993;SDS011;2011;48.238;13.948;2022-07-23T10:04:20;7.40;;;5.00;;
3993;SDS011;2011;48.238;13.948;2022-07-23T10:06:49;7.93;;;4.60;;
3993;SDS011;2011;48.238;13.948;2022-07-23T10:09:20;8.43;;;4.93;;
3993;SDS011;2011;48.238;13.948;2022-07-23T10:11:51;7.70;;;5.00;;
3993;SDS011;2011;48.238;13.948;2022-07-23T10:14:21;15.43;;;5.37;;
3993;SDS011;2011;48.238;13.948;2022-07-23T10:16:47;13.80;;;5.27;;
3993;SDS011;2011;48.238;13.948;2022-07-23T10:19:14;17.67;;;4.90;;
3993;SDS011;2011;48.238;13.948;2022-07-23T10:21:45;13.17;;;4.90;;
3993;SDS011;2011;48.238;13.948;2022-07-23T10:24:20;9.83;;;5.13;;
3993;SDS011;2011;48.238;13.948;2022-07-23T10:27:00;12.77;;;5.37;;
3993;SDS011;2011;48.238;13.948;2022-07-23T10:29:41;6.70;;;4.63;;
3993;SDS011;2011;48.238;13.948;2022-07-23T10:32:17;9.80;;;5.17;;
3993;SDS011;2011;48.238;13.948;2022-07-23T10:34:55;12.10;;;5.03;;
3993;SDS011;2011;48.238;13.948;2022-07-23T10:37:32;12.73;;;5.60;;
3993;SDS011;2011;48.238;13.948;2022-07-23T10:40:10;11.93;;;5.30;;
3993;SDS011;2011;48.238;13.948;2022-07-23T10:42:42;15.20;;;5.03;;
3993;SDS011;2011;48.238;13.948;2022-07-23T10:45:24;7.77;;;4.83;;
3993;SDS011;2011;48.238;13.948;2022-07-23T10:47:52;6.50;;;4.70;;
3993;SDS011;2011;48.238;13.948;2022-07-23T10:50:20;10.53;;;4.60;;
3993;SDS011;2011;48.238;13.948;2022-07-23T10:55:44;8.80;;;4.90;;
3993;SDS011;2011;48.238;13.948;2022-07-23T10:58:17;8.23;;;4.70;;
3993;SDS011;2011;48.238;13.948;2022-07-23T11:00:45;11.50;;;5.10;;
3993;SDS011;2011;48.238;13.948;2022-07-23T11:03:32;7.00;;;4.80;;
3993;SDS011;2011;48.238;13.948;2022-07-23T11:06:02;14.17;;;4.73;;
3993;SDS011;2011;48.238;13.948;2022-07-23T11:08:30;13.13;;;4.87;;
3993;SDS011;2011;48.238;13.948;2022-07-23T11:11:09;9.13;;;5.00;;
3993;SDS011;2011;48.238;13.948;2022-07-23T11:13:38;8.73;;;4.97;;
3993;SDS011;2011;48.238;13.948;2022-07-23T11:16:08;6.10;;;4.00;;
3993;SDS011;2011;48.238;13.948;2022-07-23T11:18:55;6.87;;;4.83;;
3993;SDS011;2011;48.238;13.948;2022-07-23T11:24:22;7.17;;;4.77;;
3993;SDS011;2011;48.238;13.948;2022-07-23T11:26:53;6.17;;;4.40;;
3993;SDS011;2011;48.238;13.948;2022-07-23T11:35:18;8.60;;;4.67;;
3993;SDS011;2011;48.238;13.948;2022-07-23T11:37:47;7.23;;;4.90;;
3993;SDS011;2011;48.238;13.948;2022-07-23T11:40:19;13.90;;;4.13;;
3993;SDS011;2011;48.238;13.948;2022-07-23T11:42:55;7.40;;;4.30;;
3993;SDS011;2011;48.238;13.948;2022-07-23T11:45:25;10.33;;;4.03;;
3993;SDS011;2011;48.238;13.948;2022-07-23T11:47:56;5.77;;;4.63;;
3993;SDS011;2011;48.238;13.948;2022-07-23T11:50:23;7.53;;;4.33;;
3993;SDS011;2011;48.238;13.948;2022-07-23T11:52:51;6.13;;;4.13;;
3993;SDS011;2011;48.238;13.948;2022-07-23T11:55:19;8.67;;;4.57;;
3993;SDS011;2011;48.238;13.948;2022-07-23T11:57:46;12.03;;;6.53;;
3993;SDS011;2011;48.238;13.948;2022-07-23T12:00:15;12.57;;;4.70;;
3993;SDS011;2011;48.238;13.948;2022-07-23T12:02:44;15.63;;;6.93;;
3993;SDS011;2011;48.238;13.948;2022-07-23T12:05:13;8.30;;;4.90;;
3993;SDS011;2011;48.238;13.948;2022-07-23T12:07:42;6.63;;;4.50;;
3993;SDS011;2011;48.238;13.948;2022-07-23T12:10:12;8.10;;;4.90;;
3993;SDS011;2011;48.238;13.948;2022-07-23T12:12:41;7.07;;;5.00;;
3993;SDS011;2011;48.238;13.948;2022-07-23T12:15:09;6.73;;;4.47;;
3993;SDS011;2011;48.238;13.948;2022-07-23T12:17:39;7.03;;;4.50;;
3993;SDS011;2011;48.238;13.948;2022-07-23T12:20:08;10.30;;;4.70;;
3993;SDS011;2011;48.238;13.948;2022-07-23T12:22:39;6.47;;;4.73;;
3993;SDS011;2011;48.238;13.948;2022-07-23T12:25:08;8.20;;;4.80;;
3993;SDS011;2011;48.238;13.948;2022-07-23T12:27:36;8.60;;;5.40;;
3993;SDS011;2011;48.238;13.948;2022-07-23T12:30:16;8.10;;;5.10;;
3993;SDS011;2011;48.238;13.948;2022-07-23T12:32:46;8.50;;;5.07;;
3993;SDS011;2011;48.238;13.948;2022-07-23T12:35:15;8.20;;;5.00;;
3993;SDS011;2011;48.238;13.948;2022-07-23T12:37:43;14.40;;;5.17;;
3993;SDS011;2011;48.238;13.948;2022-07-23T12:40:24;23.13;;;5.17;;
3993;SDS011;2011;48.238;13.948;2022-07-23T12:42:54;7.27;;;4.77;;
3993;SDS011;2011;48.238;13.948;2022-07-23T12:45:22;10.30;;;4.97;;
3993;SDS011;2011;48.238;13.948;2022-07-23T12:47:51;7.40;;;5.00;;
3993;SDS011;2011;48.238;13.948;2022-07-23T12:50:37;7.07;;;4.90;;
3993;SDS011;2011;48.238;13.948;2022-07-23T12:53:06;8.50;;;5.07;;
3993;SDS011;2011;48.238;13.948;2022-07-23T12:55:36;11.80;;;5.30;;
3993;SDS011;2011;48.238;13.948;2022-07-23T12:58:08;20.00;;;5.43;;
3993;SDS011;2011;48.238;13.948;2022-07-23T13:00:56;7.73;;;4.83;;
3993;SDS011;2011;48.238;13.948;2022-07-23T13:03:32;8.47;;;6.13;;
3993;SDS011;2011;48.238;13.948;2022-07-23T13:06:01;7.30;;;5.37;;
3993;SDS011;2011;48.238;13.948;2022-07-23T13:08:30;13.70;;;6.00;;
3993;SDS011;2011;48.238;13.948;2022-07-23T13:10:58;7.43;;;5.00;;
3993;SDS011;2011;48.238;13.948;2022-07-23T13:13:26;8.43;;;5.80;;
3993;SDS011;2011;48.238;13.948;2022-07-23T13:15:56;9.93;;;5.10;;
3993;SDS011;2011;48.238;13.948;2022-07-23T13:18:24;9.87;;;6.00;;
3993;SDS011;2011;48.238;13.948;2022-07-23T13:20:54;10.43;;;5.50;;
3993;SDS011;2011;48.238;13.948;2022-07-23T13:23:21;6.87;;;5.30;;
3993;SDS011;2011;48.238;13.948;2022-07-23T13:25:49;8.23;;;5.73;;
3993;SDS011;2011;48.238;13.948;2022-07-23T13:28:16;9.13;;;6.00;;
3993;SDS011;2011;48.238;13.948;2022-07-23T13:30:44;9.63;;;5.70;;
3993;SDS011;2011;48.238;13.948;2022-07-23T13:33:13;8.30;;;5.30;;
3993;SDS011;2011;48.238;13.948;2022-07-23T13:35:40;7.67;;;5.40;;
3993;SDS011;2011;48.238;13.948;2022-07-23T13:38:08;8.67;;;5.40;;
3993;SDS011;2011;48.238;13.948;2022-07-23T13:40:36;10.33;;;5.07;;
3993;SDS011;2011;48.238;13.948;2022-07-23T13:43:04;11.83;;;6.07;;
3993;SDS011;2011;48.238;13.948;2022-07-23T13:45:32;9.17;;;5.90;;
3993;SDS011;2011;48.238;13.948;2022-07-23T13:47:59;8.07;;;5.77;;
3993;SDS011;2011;48.238;13.948;2022-07-23T13:50:26;11.97;;;5.87;;
3993;SDS011;2011;48.238;13.948;2022-07-23T13:52:53;10.30;;;5.67;;
3993;SDS011;2011;48.238;13.948;2022-07-23T13:55:21;13.60;;;5.90;;
3993;SDS011;2011;48.238;13.948;2022-07-23T13:57:48;9.20;;;5.80;;
3993;SDS011;2011;48.238;13.948;2022-07-23T14:00:15;9.50;;;5.07;;
3993;SDS011;2011;48.238;13.948;2022-07-23T14:02:43;8.13;;;5.60;;
3993;SDS011;2011;48.238;13.948;2022-07-23T14:05:10;16.83;;;5.53;;
3993;SDS011;2011;48.238;13.948;2022-07-23T14:07:38;10.63;;;5.00;;
3993;SDS011;2011;48.238;13.948;2022-07-23T14:10:08;8.20;;;5.10;;
3993;SDS011;2011;48.238;13.948;2022-07-23T14:12:37;11.43;;;5.00;;
3993;SDS011;2011;48.238;13.948;2022-07-23T14:15:05;8.10;;;5.23;;
3993;SDS011;2011;48.238;13.948;2022-07-23T14:17:34;9.80;;;5.50;;
3993;SDS011;2011;48.238;13.948;2022-07-23T14:20:02;7.30;;;5.07;;
3993;SDS011;2011;48.238;13.948;2022-07-23T14:22:30;6.77;;;4.80;;
3993;SDS011;2011;48.238;13.948;2022-07-23T14:24:57;9.23;;;4.97;;
3993;SDS011;2011;48.238;13.948;2022-07-23T14:27:25;9.60;;;6.30;;
3993;SDS011;2011;48.238;13.948;2022-07-23T14:29:54;8.07;;;5.13;;
3993;SDS011;2011;48.238;13.948;2022-07-23T14:32:22;7.93;;;6.00;;
3993;SDS011;2011;48.238;13.948;2022-07-23T14:34:49;9.47;;;5.00;;
3993;SDS011;2011;48.238;13.948;2022-07-23T14:37:16;8.83;;;5.20;;
3993;SDS011;2011;48.238;13.948;2022-07-23T14:39:44;9.33;;;5.20;;
3993;SDS011;2011;48.238;13.948;2022-07-23T14:42:13;11.40;;;6.23;;
3993;SDS011;2011;48.238;13.948;2022-07-23T14:44:40;9.70;;;6.20;;
3993;SDS011;2011;48.238;13.948;2022-07-23T14:47:09;13.23;;;5.77;;
3993;SDS011;2011;48.238;13.948;2022-07-23T14:49:37;9.70;;;6.30;;
3993;SDS011;2011;48.238;13.948;2022-07-23T14:52:04;10.90;;;6.13;;
3993;SDS011;2011;48.238;13.948;2022-07-23T14:54:32;11.10;;;6.90;;
3993;SDS011;2011;48.238;13.948;2022-07-23T14:57:00;14.90;;;6.30;;
3993;SDS011;2011;48.238;13.948;2022-07-23T14:59:29;9.07;;;5.83;;
3993;SDS011;2011;48.238;13.948;2022-07-23T15:01:56;10.20;;;6.07;;
3993;SDS011;2011;48.238;13.948;2022-07-23T15:04:25;8.90;;;5.83;;
3993;SDS011;2011;48.238;13.948;2022-07-23T15:06:52;10.47;;;6.17;;
3993;SDS011;2011;48.238;13.948;2022-07-23T15:09:19;15.63;;;6.30;;